createdAt,value
2018-11-12T00:01:56.258Z,10.32
2018-11-12T00:07:06.336Z,10.27
2018-11-12T00:12:09.534Z,10.27
2018-11-12T00:17:12.762Z,10.27
2018-11-12T00:22:16.030Z,10.27
2018-11-12T00:27:19.246Z,10.36
2018-11-12T00:32:22.444Z,10.27
2018-11-12T00:37:25.627Z,10.20
2018-11-12T00:42:28.814Z,10.18
2018-11-12T00:47:32.019Z,10.10
2018-11-12T00:52:35.374Z,10.01
2018-11-12T00:57:38.910Z,9.93
2018-11-12T01:02:44.243Z,9.86
2018-11-12T01:07:47.983Z,9.66
2018-11-12T01:12:51.214Z,9.72
2018-11-12T01:17:54.405Z,9.69
2018-11-12T01:22:57.602Z,9.62
2018-11-12T01:28:00.883Z,9.54
2018-11-12T01:33:04.735Z,9.48
2018-11-12T01:38:07.946Z,9.42
2018-11-12T01:43:11.128Z,9.29
2018-11-12T01:48:14.350Z,9.29
2018-11-12T01:53:17.552Z,9.19
2018-11-12T01:58:20.768Z,9.13
2018-11-12T02:03:23.985Z,9.13
2018-11-12T02:08:27.222Z,9.13
2018-11-12T02:13:30.470Z,9.11
2018-11-12T02:18:33.691Z,9.11
2018-11-12T02:23:37.203Z,9.07
2018-11-12T02:28:40.450Z,9.20
2018-11-12T02:33:43.655Z,9.13
2018-11-12T02:38:46.831Z,9.04
2018-11-12T02:43:50.005Z,9.06
2018-11-12T02:48:53.159Z,8.98
2018-11-12T02:53:56.439Z,8.95
2018-11-12T02:58:59.642Z,8.96
2018-11-12T03:04:02.838Z,8.97
2018-11-12T03:09:10.697Z,8.92
2018-11-12T03:14:13.955Z,8.94
2018-11-12T03:19:17.154Z,8.92
2018-11-12T03:24:20.367Z,8.89
2018-11-12T03:29:23.600Z,8.86
2018-11-12T03:34:26.750Z,8.84
2018-11-12T03:39:29.960Z,8.80
2018-11-12T03:44:33.165Z,8.79
2018-11-12T03:49:36.398Z,8.72
2018-11-12T03:54:39.651Z,8.75
2018-11-12T03:59:42.847Z,8.66
2018-11-12T04:04:46.130Z,8.74
2018-11-12T04:09:49.318Z,8.70
2018-11-12T04:14:52.516Z,8.67
2018-11-12T04:19:55.704Z,8.61
2018-11-12T04:24:58.882Z,8.56
2018-11-12T04:30:02.070Z,8.59
2018-11-12T04:35:05.836Z,8.52
2018-11-12T04:40:12.767Z,8.43
2018-11-12T04:45:17.934Z,8.35
2018-11-12T04:50:23.361Z,8.39
2018-11-12T04:55:26.772Z,8.29
2018-11-12T05:00:29.836Z,8.35
2018-11-12T05:05:33.005Z,8.33
2018-11-12T05:10:36.162Z,8.16
2018-11-12T05:15:39.390Z,8.00
2018-11-12T05:20:42.588Z,7.95
2018-11-12T05:25:45.914Z,7.85
2018-11-12T05:30:49.151Z,7.85
2018-11-12T05:35:52.325Z,7.87
2018-11-12T05:40:55.567Z,7.89
2018-11-12T05:45:58.767Z,7.94
2018-11-12T05:51:01.949Z,7.79
2018-11-12T05:56:05.546Z,7.75
2018-11-12T06:01:08.782Z,7.65
2018-11-12T06:06:11.987Z,7.56
2018-11-12T06:11:15.146Z,7.62
2018-11-12T06:16:18.567Z,7.56
2018-11-12T06:21:21.783Z,7.71
2018-11-12T06:26:25.077Z,7.74
2018-11-12T06:31:28.279Z,7.67
2018-11-12T06:36:31.562Z,7.83
2018-11-12T06:41:34.750Z,7.95
2018-11-12T06:46:37.944Z,8.00
2018-11-12T06:51:41.137Z,7.90
2018-11-12T06:56:44.396Z,8.03
2018-11-12T07:01:47.579Z,8.12
2018-11-12T07:06:50.930Z,8.47
2018-11-12T07:11:54.171Z,8.77
2018-11-12T07:16:57.400Z,9.14
2018-11-12T07:22:01.754Z,9.51
2018-11-12T07:27:05.097Z,9.74
2018-11-12T07:32:08.331Z,10.05
2018-11-12T07:37:11.852Z,10.06
2018-11-12T07:42:15.148Z,10.38
2018-11-12T07:47:18.372Z,10.48
2018-11-12T07:52:21.659Z,10.75
2018-11-12T07:57:25.015Z,10.89
2018-11-12T08:02:28.223Z,11.46
2018-11-12T08:07:31.395Z,11.57
2018-11-12T08:12:34.602Z,11.66
2018-11-12T08:17:37.951Z,11.82
2018-11-12T08:22:41.745Z,11.50
2018-11-12T08:27:45.587Z,11.96
2018-11-12T08:32:50.356Z,12.23
2018-11-12T08:37:54.146Z,12.47
2018-11-12T08:42:57.565Z,12.76
2018-11-12T08:48:00.924Z,13.20
2018-11-12T08:53:04.539Z,13.44
2018-11-12T08:58:08.173Z,13.60
2018-11-12T09:03:12.125Z,13.84
2018-11-12T09:08:15.502Z,13.93
2018-11-12T09:13:18.863Z,14.21
2018-11-12T09:18:22.118Z,14.40
2018-11-12T09:23:25.324Z,14.76
2018-11-12T09:28:29.206Z,15.10
2018-11-12T09:33:32.736Z,15.59
2018-11-12T09:38:36.255Z,16.03
2018-11-12T09:43:39.485Z,16.54
2018-11-12T09:48:42.971Z,16.73
2018-11-12T09:53:46.462Z,16.99
2018-11-12T09:58:49.686Z,17.11
2018-11-12T10:03:54.747Z,17.29
2018-11-12T10:09:00.477Z,17.60
2018-11-12T10:14:02.452Z,17.97
2018-11-12T10:19:04.888Z,18.26
2018-11-12T10:24:07.998Z,18.47
2018-11-12T10:29:11.322Z,18.88
2018-11-12T10:34:14.540Z,18.85
2018-11-12T10:39:17.761Z,18.94
2018-11-12T10:44:21.042Z,18.85
2018-11-12T10:49:24.230Z,18.92
2018-11-12T10:54:27.632Z,19.04
2018-11-12T10:59:30.892Z,19.31
2018-11-12T11:04:34.163Z,19.26
2018-11-12T11:09:37.419Z,19.41
2018-11-12T11:14:40.602Z,19.37
2018-11-12T11:19:43.864Z,19.46
2018-11-12T11:24:47.030Z,19.38
2018-11-12T11:29:50.215Z,19.35
2018-11-12T11:34:54.084Z,19.32
2018-11-12T11:39:57.374Z,19.20
2018-11-12T11:45:00.633Z,19.21
2018-11-12T11:50:04.255Z,19.23
2018-11-12T11:55:11.615Z,19.40
2018-11-12T12:00:21.735Z,19.35
2018-11-12T12:05:25.748Z,19.33
2018-11-12T12:10:28.974Z,19.26
2018-11-12T12:15:34.521Z,19.21
2018-11-12T12:20:37.759Z,19.07
2018-11-12T12:25:41.127Z,18.89
2018-11-12T12:30:44.324Z,18.62
2018-11-12T12:35:47.878Z,18.40
2018-11-12T12:40:51.139Z,18.34
2018-11-12T12:51:10.117Z,18.19
2018-11-12T12:56:13.834Z,18.18
2018-11-12T13:01:17.156Z,18.13
2018-11-12T13:06:20.478Z,18.20
2018-11-12T13:11:23.743Z,18.20
2018-11-12T13:16:27.123Z,18.21
2018-11-12T13:21:30.713Z,18.12
2018-11-12T13:26:33.906Z,18.13
2018-11-12T13:31:37.182Z,17.94
2018-11-12T13:36:40.483Z,17.77
2018-11-12T13:41:43.723Z,17.89
2018-11-12T13:46:53.301Z,18.01
2018-11-12T13:51:56.567Z,18.01
2018-11-12T13:56:59.830Z,18.10
2018-11-12T14:02:03.157Z,18.25
2018-11-12T14:07:06.413Z,18.15
2018-11-12T14:12:09.627Z,18.21
2018-11-12T14:17:12.916Z,18.21
2018-11-12T14:22:16.155Z,18.35
2018-11-12T14:27:19.395Z,18.18
2018-11-12T14:32:22.691Z,17.95
2018-11-12T14:37:25.935Z,17.74
2018-11-12T14:42:29.208Z,17.53
2018-11-12T14:47:32.449Z,17.53
2018-11-12T14:52:35.771Z,17.33
2018-11-12T14:57:39.106Z,17.21
2018-11-12T15:02:42.402Z,16.94
2018-11-12T15:07:45.767Z,16.76
2018-11-12T15:12:49.510Z,16.52
2018-11-12T15:17:52.775Z,16.29
2018-11-12T15:22:55.990Z,16.13
2018-11-12T15:27:59.278Z,15.92
2018-11-12T15:33:02.579Z,15.66
2018-11-12T15:38:06.355Z,15.40
2018-11-12T15:43:09.663Z,15.24
2018-11-12T15:48:12.910Z,15.01
2018-11-12T15:53:16.146Z,14.87
2018-11-12T15:58:19.469Z,14.70
2018-11-12T16:03:22.758Z,14.63
2018-11-12T16:08:26.003Z,14.51
2018-11-12T16:13:29.251Z,14.40
2018-11-12T16:18:32.520Z,14.31
2018-11-12T16:23:35.753Z,14.11
2018-11-12T16:28:39.022Z,13.94
2018-11-12T16:33:42.291Z,13.79
2018-11-12T16:38:45.546Z,13.70
2018-11-12T16:43:48.821Z,13.55
2018-11-12T16:48:52.154Z,13.37
2018-11-12T16:53:55.397Z,13.29
2018-11-12T16:58:58.630Z,13.18
2018-11-12T17:04:01.918Z,13.10
2018-11-12T17:09:10.587Z,12.97
2018-11-12T17:14:13.967Z,12.89
2018-11-12T17:19:17.371Z,12.77
2018-11-12T17:24:20.762Z,12.57
2018-11-12T17:29:24.238Z,12.59
2018-11-12T17:34:27.582Z,12.53
2018-11-12T17:39:30.833Z,12.46
2018-11-12T17:44:34.135Z,12.49
2018-11-12T17:49:37.432Z,12.46
2018-11-12T17:54:40.761Z,12.39
2018-11-12T17:59:44.105Z,12.23
2018-11-12T18:04:47.462Z,12.16
2018-11-12T18:09:50.795Z,12.20
2018-11-12T18:14:54.074Z,12.17
2018-11-12T18:19:57.461Z,12.16
2018-11-12T18:25:00.698Z,12.25
2018-11-12T18:30:06.966Z,12.26
2018-11-12T18:35:10.273Z,12.34
2018-11-12T18:40:14.938Z,12.43
2018-11-12T18:45:19.673Z,12.38
2018-11-12T18:50:26.448Z,12.53
2018-11-12T18:55:29.787Z,12.55
2018-11-12T19:00:33.088Z,12.68
2018-11-12T19:05:36.449Z,12.63
2018-11-12T19:10:39.836Z,12.65
2018-11-12T19:15:43.171Z,12.52
2018-11-12T19:20:46.513Z,12.40
2018-11-12T19:25:49.894Z,12.28
2018-11-12T19:30:53.402Z,12.22
2018-11-12T19:35:57.286Z,12.26
2018-11-12T19:41:00.662Z,12.12
2018-11-12T19:46:04.484Z,12.05
2018-11-12T19:51:07.825Z,12.02
2018-11-12T19:56:11.234Z,12.04
2018-11-12T20:01:14.539Z,12.06
2018-11-12T20:06:17.836Z,12.06
2018-11-12T20:11:21.182Z,12.05
2018-11-12T20:16:24.579Z,12.04
2018-11-12T20:21:28.041Z,12.29
2018-11-12T20:26:31.442Z,11.85
2018-11-12T20:31:34.709Z,11.75
2018-11-12T20:36:38.055Z,11.74
2018-11-12T20:41:41.406Z,11.82
2018-11-12T20:46:44.611Z,11.80
2018-11-12T20:51:47.909Z,11.76
2018-11-12T20:56:51.182Z,11.78
2018-11-12T21:01:54.461Z,11.75
2018-11-12T21:06:57.761Z,11.68
2018-11-12T21:12:01.012Z,11.64
2018-11-12T21:17:04.680Z,11.62
2018-11-12T21:22:11.308Z,11.60
2018-11-12T21:27:14.539Z,11.52
2018-11-12T21:32:17.818Z,11.59
2018-11-12T21:37:21.192Z,11.66
2018-11-12T21:42:24.451Z,11.67
2018-11-12T21:47:27.675Z,11.65
2018-11-12T21:52:30.976Z,11.66
2018-11-12T21:57:34.225Z,11.75
2018-11-12T22:02:37.496Z,11.85
2018-11-12T22:07:40.803Z,11.74
2018-11-12T22:12:45.291Z,11.72
2018-11-12T22:17:48.546Z,11.68
2018-11-12T22:22:51.817Z,11.71
2018-11-12T22:27:55.098Z,11.76
2018-11-12T22:32:58.299Z,11.78
2018-11-12T22:38:01.554Z,11.70
2018-11-12T22:43:04.840Z,11.70
2018-11-12T22:48:08.094Z,11.70
2018-11-12T22:53:11.398Z,11.69
2018-11-12T22:58:14.553Z,11.67
2018-11-12T23:03:17.902Z,11.64
2018-11-12T23:08:21.094Z,11.66
2018-11-12T23:13:24.283Z,11.80
2018-11-12T23:18:27.517Z,11.86
2018-11-12T23:23:30.809Z,11.73
2018-11-12T23:28:34.001Z,11.78
2018-11-12T23:33:37.196Z,11.88
2018-11-12T23:38:40.411Z,11.92
2018-11-12T23:43:43.619Z,11.97
2018-11-12T23:48:47.082Z,11.85
2018-11-12T23:53:50.262Z,11.89
2018-11-12T23:58:53.451Z,11.83
